sensor_id;sensor_type;location;lat;lon;timestamp;temperature;humidity
21282;DHT22;10800;53.096;18.328;2023-05-07T00:05:08;5.00;99.90
21282;DHT22;10800;53.096;18.328;2023-05-07T00:10:16;4.90;99.90
21282;DHT22;10800;53.096;18.328;2023-05-07T00:15:22;4.90;99.90
21282;DHT22;10800;53.096;18.328;2023-05-07T00:20:28;4.80;99.90
21282;DHT22;10800;53.096;18.328;2023-05-07T00:25:34;4.80;99.90
21282;DHT22;10800;53.096;18.328;2023-05-07T00:30:42;4.70;99.90
21282;DHT22;10800;53.096;18.328;2023-05-07T00:35:51;4.60;99.90
21282;DHT22;10800;53.096;18.328;2023-05-07T00:40:58;4.50;99.90
21282;DHT22;10800;53.096;18.328;2023-05-07T00:46:04;4.50;99.90
21282;DHT22;10800;53.096;18.328;2023-05-07T00:51:10;4.40;99.90
21282;DHT22;10800;53.096;18.328;2023-05-07T00:56:16;4.30;99.90
21282;DHT22;10800;53.096;18.328;2023-05-07T01:01:26;4.10;99.90
21282;DHT22;10800;53.096;18.328;2023-05-07T01:06:34;4.10;99.90
21282;DHT22;10800;53.096;18.328;2023-05-07T01:11:42;3.90;99.90
21282;DHT22;10800;53.096;18.328;2023-05-07T01:16:51;3.70;99.90
21282;DHT22;10800;53.096;18.328;2023-05-07T01:22:07;3.60;99.90
21282;DHT22;10800;53.096;18.328;2023-05-07T01:27:06;3.50;99.90
21282;DHT22;10800;53.096;18.328;2023-05-07T01:32:12;3.50;99.90
21282;DHT22;10800;53.096;18.328;2023-05-07T01:37:20;3.50;99.90
21282;DHT22;10800;53.096;18.328;2023-05-07T01:42:26;3.40;99.90
21282;DHT22;10800;53.096;18.328;2023-05-07T01:47:33;3.30;99.90
21282;DHT22;10800;53.096;18.328;2023-05-07T01:52:39;3.30;99.90
21282;DHT22;10800;53.096;18.328;2023-05-07T01:57:49;3.20;99.90
21282;DHT22;10800;53.096;18.328;2023-05-07T02:02:55;3.20;99.90
21282;DHT22;10800;53.096;18.328;2023-05-07T02:08:04;3.20;99.90
21282;DHT22;10800;53.096;18.328;2023-05-07T02:13:11;3.10;99.90
21282;DHT22;10800;53.096;18.328;2023-05-07T02:18:17;3.10;99.90
21282;DHT22;10800;53.096;18.328;2023-05-07T02:23:23;3.10;99.90
21282;DHT22;10800;53.096;18.328;2023-05-07T02:28:30;3.10;99.90
21282;DHT22;10800;53.096;18.328;2023-05-07T02:33:35;3.00;99.90
21282;DHT22;10800;53.096;18.328;2023-05-07T02:38:42;2.80;99.90
21282;DHT22;10800;53.096;18.328;2023-05-07T02:43:48;2.70;99.90
21282;DHT22;10800;53.096;18.328;2023-05-07T02:48:53;2.70;99.90
21282;DHT22;10800;53.096;18.328;2023-05-07T02:54:00;2.60;99.90
21282;DHT22;10800;53.096;18.328;2023-05-07T02:59:05;2.60;99.90
21282;DHT22;10800;53.096;18.328;2023-05-07T03:04:10;2.50;99.90
21282;DHT22;10800;53.096;18.328;2023-05-07T03:09:16;2.40;99.90
21282;DHT22;10800;53.096;18.328;2023-05-07T03:14:22;2.30;99.90
21282;DHT22;10800;53.096;18.328;2023-05-07T03:19:27;2.20;99.90
21282;DHT22;10800;53.096;18.328;2023-05-07T03:24:34;2.30;99.90
21282;DHT22;10800;53.096;18.328;2023-05-07T03:29:41;2.30;99.90
21282;DHT22;10800;53.096;18.328;2023-05-07T03:34:48;2.30;99.90
21282;DHT22;10800;53.096;18.328;2023-05-07T03:39:53;2.30;99.90
21282;DHT22;10800;53.096;18.328;2023-05-07T03:45:00;2.30;99.90
21282;DHT22;10800;53.096;18.328;2023-05-07T03:50:28;2.20;99.90
21282;DHT22;10800;53.096;18.328;2023-05-07T03:55:41;2.30;99.90
21282;DHT22;10800;53.096;18.328;2023-05-07T04:00:48;2.40;99.90
21282;DHT22;10800;53.096;18.328;2023-05-07T04:05:59;2.50;99.90
21282;DHT22;10800;53.096;18.328;2023-05-07T04:11:06;2.60;99.90
21282;DHT22;10800;53.096;18.328;2023-05-07T04:16:12;2.70;99.90
21282;DHT22;10800;53.096;18.328;2023-05-07T04:21:21;2.90;99.90
21282;DHT22;10800;53.096;18.328;2023-05-07T04:26:32;3.00;99.90
21282;DHT22;10800;53.096;18.328;2023-05-07T04:31:38;3.20;99.90
21282;DHT22;10800;53.096;18.328;2023-05-07T04:36:43;3.30;99.90
21282;DHT22;10800;53.096;18.328;2023-05-07T04:41:48;3.50;99.90
21282;DHT22;10800;53.096;18.328;2023-05-07T04:46:55;3.60;99.90
21282;DHT22;10800;53.096;18.328;2023-05-07T04:52:04;3.80;99.90
21282;DHT22;10800;53.096;18.328;2023-05-07T04:57:13;4.10;99.90
21282;DHT22;10800;53.096;18.328;2023-05-07T05:02:21;4.40;99.90
21282;DHT22;10800;53.096;18.328;2023-05-07T05:07:27;4.70;99.90
21282;DHT22;10800;53.096;18.328;2023-05-07T05:12:33;5.10;99.90
21282;DHT22;10800;53.096;18.328;2023-05-07T05:17:44;5.60;99.90
21282;DHT22;10800;53.096;18.328;2023-05-07T05:22:50;6.00;99.90
21282;DHT22;10800;53.096;18.328;2023-05-07T05:27:55;6.40;99.90
21282;DHT22;10800;53.096;18.328;2023-05-07T05:33:02;6.80;99.90
21282;DHT22;10800;53.096;18.328;2023-05-07T05:38:08;7.20;99.90
21282;DHT22;10800;53.096;18.328;2023-05-07T05:43:19;7.80;99.90
21282;DHT22;10800;53.096;18.328;2023-05-07T05:48:25;8.30;99.90
21282;DHT22;10800;53.096;18.328;2023-05-07T05:53:30;8.70;99.90
21282;DHT22;10800;53.096;18.328;2023-05-07T05:58:35;9.10;99.90
21282;DHT22;10800;53.096;18.328;2023-05-07T06:03:41;9.40;99.90
21282;DHT22;10800;53.096;18.328;2023-05-07T06:08:46;9.70;99.90
21282;DHT22;10800;53.096;18.328;2023-05-07T06:13:57;9.80;99.90
21282;DHT22;10800;53.096;18.328;2023-05-07T06:19:02;10.20;99.90
21282;DHT22;10800;53.096;18.328;2023-05-07T06:24:07;10.90;99.90
21282;DHT22;10800;53.096;18.328;2023-05-07T06:29:13;11.20;99.90
21282;DHT22;10800;53.096;18.328;2023-05-07T06:34:18;10.90;98.30
21282;DHT22;10800;53.096;18.328;2023-05-07T06:39:24;11.30;98.30
21282;DHT22;10800;53.096;18.328;2023-05-07T06:44:29;12.00;98.70
21282;DHT22;10800;53.096;18.328;2023-05-07T06:49:34;12.50;98.30
21282;DHT22;10800;53.096;18.328;2023-05-07T06:54:42;13.20;94.80
21282;DHT22;10800;53.096;18.328;2023-05-07T06:59:47;13.60;90.30
21282;DHT22;10800;53.096;18.328;2023-05-07T07:04:52;12.60;86.60
21282;DHT22;10800;53.096;18.328;2023-05-07T07:09:58;13.60;90.00
21282;DHT22;10800;53.096;18.328;2023-05-07T07:15:03;13.70;83.50
21282;DHT22;10800;53.096;18.328;2023-05-07T07:20:09;14.80;86.10
21282;DHT22;10800;53.096;18.328;2023-05-07T07:25:15;15.50;77.90
21282;DHT22;10800;53.096;18.328;2023-05-07T07:30:21;15.30;73.70
21282;DHT22;10800;53.096;18.328;2023-05-07T07:35:27;15.90;78.00
21282;DHT22;10800;53.096;18.328;2023-05-07T07:40:40;15.90;76.00
21282;DHT22;10800;53.096;18.328;2023-05-07T07:45:41;16.70;74.20
21282;DHT22;10800;53.096;18.328;2023-05-07T07:50:49;16.10;75.00
21282;DHT22;10800;53.096;18.328;2023-05-07T07:55:58;16.60;68.40
21282;DHT22;10800;53.096;18.328;2023-05-07T08:01:03;16.20;69.20
21282;DHT22;10800;53.096;18.328;2023-05-07T08:06:08;15.90;67.10
21282;DHT22;10800;53.096;18.328;2023-05-07T08:11:14;16.80;71.70
21282;DHT22;10800;53.096;18.328;2023-05-07T08:16:20;17.70;68.40
21282;DHT22;10800;53.096;18.328;2023-05-07T08:21:27;17.70;64.10
21282;DHT22;10800;53.096;18.328;2023-05-07T08:26:36;18.20;60.50
21282;DHT22;10800;53.096;18.328;2023-05-07T08:31:43;17.40;62.40
21282;DHT22;10800;53.096;18.328;2023-05-07T08:36:49;17.90;61.20
21282;DHT22;10800;53.096;18.328;2023-05-07T08:41:56;17.50;58.40
21282;DHT22;10800;53.096;18.328;2023-05-07T08:47:02;17.60;62.50
21282;DHT22;10800;53.096;18.328;2023-05-07T08:52:09;18.50;58.80
21282;DHT22;10800;53.096;18.328;2023-05-07T08:57:14;18.50;57.50
21282;DHT22;10800;53.096;18.328;2023-05-07T09:02:20;18.70;58.90
21282;DHT22;10800;53.096;18.328;2023-05-07T09:07:25;18.70;57.90
21282;DHT22;10800;53.096;18.328;2023-05-07T09:12:31;18.60;56.90
21282;DHT22;10800;53.096;18.328;2023-05-07T09:17:36;19.20;57.20
21282;DHT22;10800;53.096;18.328;2023-05-07T09:22:41;19.00;57.90
21282;DHT22;10800;53.096;18.328;2023-05-07T09:27:48;19.30;55.90
21282;DHT22;10800;53.096;18.328;2023-05-07T09:32:54;19.30;55.40
21282;DHT22;10800;53.096;18.328;2023-05-07T09:38:02;18.70;55.80
21282;DHT22;10800;53.096;18.328;2023-05-07T09:43:11;18.70;55.00
21282;DHT22;10800;53.096;18.328;2023-05-07T09:48:18;18.50;53.90
21282;DHT22;10800;53.096;18.328;2023-05-07T09:53:24;17.60;55.90
21282;DHT22;10800;53.096;18.328;2023-05-07T09:58:32;17.80;55.60
21282;DHT22;10800;53.096;18.328;2023-05-07T10:03:41;17.60;57.10
21282;DHT22;10800;53.096;18.328;2023-05-07T10:08:51;18.40;59.00
21282;DHT22;10800;53.096;18.328;2023-05-07T10:13:58;18.30;55.00
21282;DHT22;10800;53.096;18.328;2023-05-07T10:19:06;19.10;53.00
21282;DHT22;10800;53.096;18.328;2023-05-07T10:24:30;19.90;54.30
21282;DHT22;10800;53.096;18.328;2023-05-07T10:35:28;18.10;55.00
21282;DHT22;10800;53.096;18.328;2023-05-07T10:40:32;16.90;54.50
21282;DHT22;10800;53.096;18.328;2023-05-07T10:45:38;16.70;55.30
21282;DHT22;10800;53.096;18.328;2023-05-07T10:50:44;16.70;59.30
21282;DHT22;10800;53.096;18.328;2023-05-07T11:07:14;17.20;57.20
21282;DHT22;10800;53.096;18.328;2023-05-07T11:12:16;17.20;60.80
21282;DHT22;10800;53.096;18.328;2023-05-07T11:17:22;17.30;56.60
21282;DHT22;10800;53.096;18.328;2023-05-07T11:27:45;17.80;57.50
21282;DHT22;10800;53.096;18.328;2023-05-07T11:32:51;18.20;52.90
21282;DHT22;10800;53.096;18.328;2023-05-07T11:38:00;17.70;51.40
21282;DHT22;10800;53.096;18.328;2023-05-07T11:43:13;18.10;53.40
21282;DHT22;10800;53.096;18.328;2023-05-07T11:48:18;18.70;51.50
21282;DHT22;10800;53.096;18.328;2023-05-07T11:53:38;19.50;51.10
21282;DHT22;10800;53.096;18.328;2023-05-07T11:58:46;19.60;49.10
21282;DHT22;10800;53.096;18.328;2023-05-07T12:03:52;19.60;49.90
21282;DHT22;10800;53.096;18.328;2023-05-07T12:08:58;19.30;50.40
21282;DHT22;10800;53.096;18.328;2023-05-07T12:14:03;19.40;51.00
21282;DHT22;10800;53.096;18.328;2023-05-07T12:19:13;17.40;51.30
21282;DHT22;10800;53.096;18.328;2023-05-07T12:24:19;17.70;52.00
21282;DHT22;10800;53.096;18.328;2023-05-07T12:29:26;18.10;52.70
21282;DHT22;10800;53.096;18.328;2023-05-07T12:34:32;18.80;49.20
21282;DHT22;10800;53.096;18.328;2023-05-07T12:39:37;18.60;50.90
21282;DHT22;10800;53.096;18.328;2023-05-07T12:44:45;19.20;47.40
21282;DHT22;10800;53.096;18.328;2023-05-07T12:49:51;18.50;48.10
21282;DHT22;10800;53.096;18.328;2023-05-07T12:55:04;18.10;51.50
21282;DHT22;10800;53.096;18.328;2023-05-07T13:00:12;18.00;50.30
21282;DHT22;10800;53.096;18.328;2023-05-07T13:05:17;17.60;50.30
21282;DHT22;10800;53.096;18.328;2023-05-07T13:10:24;17.50;52.50
21282;DHT22;10800;53.096;18.328;2023-05-07T13:15:30;16.90;52.10
21282;DHT22;10800;53.096;18.328;2023-05-07T13:20:35;18.20;51.30
21282;DHT22;10800;53.096;18.328;2023-05-07T13:25:40;18.30;51.50
21282;DHT22;10800;53.096;18.328;2023-05-07T13:30:46;17.70;50.00
21282;DHT22;10800;53.096;18.328;2023-05-07T13:35:51;17.30;52.30
21282;DHT22;10800;53.096;18.328;2023-05-07T13:40:58;17.30;52.20
21282;DHT22;10800;53.096;18.328;2023-05-07T13:46:04;17.80;49.90
21282;DHT22;10800;53.096;18.328;2023-05-07T13:51:09;17.50;49.70
21282;DHT22;10800;53.096;18.328;2023-05-07T13:56:14;17.50;50.90
21282;DHT22;10800;53.096;18.328;2023-05-07T14:01:22;18.00;48.70
21282;DHT22;10800;53.096;18.328;2023-05-07T14:06:27;17.80;48.20
21282;DHT22;10800;53.096;18.328;2023-05-07T14:11:32;17.70;47.60
21282;DHT22;10800;53.096;18.328;2023-05-07T14:16:39;17.50;49.90
21282;DHT22;10800;53.096;18.328;2023-05-07T14:21:45;17.40;50.30
21282;DHT22;10800;53.096;18.328;2023-05-07T14:26:50;17.30;50.10
21282;DHT22;10800;53.096;18.328;2023-05-07T14:31:56;17.30;50.30
21282;DHT22;10800;53.096;18.328;2023-05-07T14:37:03;17.50;50.60
21282;DHT22;10800;53.096;18.328;2023-05-07T14:42:15;17.50;51.10
21282;DHT22;10800;53.096;18.328;2023-05-07T14:47:24;17.60;48.70
21282;DHT22;10800;53.096;18.328;2023-05-07T14:52:46;17.80;49.00
21282;DHT22;10800;53.096;18.328;2023-05-07T14:58:07;17.30;49.00
21282;DHT22;10800;53.096;18.328;2023-05-07T15:03:22;17.20;50.30
21282;DHT22;10800;53.096;18.328;2023-05-07T15:08:37;17.50;49.50
21282;DHT22;10800;53.096;18.328;2023-05-07T15:13:42;17.40;48.70
21282;DHT22;10800;53.096;18.328;2023-05-07T15:18:49;17.20;49.30
21282;DHT22;10800;53.096;18.328;2023-05-07T15:23:58;17.40;50.20
21282;DHT22;10800;53.096;18.328;2023-05-07T15:29:03;17.50;50.40
21282;DHT22;10800;53.096;18.328;2023-05-07T15:34:13;17.10;49.20
21282;DHT22;10800;53.096;18.328;2023-05-07T15:39:19;16.80;48.10
21282;DHT22;10800;53.096;18.328;2023-05-07T15:44:29;16.80;49.70
21282;DHT22;10800;53.096;18.328;2023-05-07T15:49:39;16.80;49.40
21282;DHT22;10800;53.096;18.328;2023-05-07T15:54:49;16.90;50.10
21282;DHT22;10800;53.096;18.328;2023-05-07T15:59:59;16.90;49.20
21282;DHT22;10800;53.096;18.328;2023-05-07T16:05:10;16.60;48.50
21282;DHT22;10800;53.096;18.328;2023-05-07T16:10:19;16.60;49.30
21282;DHT22;10800;53.096;18.328;2023-05-07T16:15:25;16.50;50.60
21282;DHT22;10800;53.096;18.328;2023-05-07T16:20:30;16.30;50.50
21282;DHT22;10800;53.096;18.328;2023-05-07T16:25:36;16.10;50.30
21282;DHT22;10800;53.096;18.328;2023-05-07T16:30:41;16.10;49.50
21282;DHT22;10800;53.096;18.328;2023-05-07T16:35:53;15.80;50.40
21282;DHT22;10800;53.096;18.328;2023-05-07T16:40:58;15.70;51.10
21282;DHT22;10800;53.096;18.328;2023-05-07T16:46:04;15.60;52.60
21282;DHT22;10800;53.096;18.328;2023-05-07T16:51:10;15.50;53.30
21282;DHT22;10800;53.096;18.328;2023-05-07T16:56:15;15.30;51.60
21282;DHT22;10800;53.096;18.328;2023-05-07T17:01:20;15.20;52.40
21282;DHT22;10800;53.096;18.328;2023-05-07T17:06:26;15.20;53.10
21282;DHT22;10800;53.096;18.328;2023-05-07T17:11:31;15.10;52.30
21282;DHT22;10800;53.096;18.328;2023-05-07T17:16:38;15.00;53.10
21282;DHT22;10800;53.096;18.328;2023-05-07T17:21:44;14.90;52.90
21282;DHT22;10800;53.096;18.328;2023-05-07T17:26:51;14.80;52.40
21282;DHT22;10800;53.096;18.328;2023-05-07T17:31:56;14.70;53.40
21282;DHT22;10800;53.096;18.328;2023-05-07T17:37:14;14.60;54.50
21282;DHT22;10800;53.096;18.328;2023-05-07T17:42:19;14.40;56.50
21282;DHT22;10800;53.096;18.328;2023-05-07T17:47:25;14.30;58.40
21282;DHT22;10800;53.096;18.328;2023-05-07T17:52:34;14.10;60.50
21282;DHT22;10800;53.096;18.328;2023-05-07T17:57:42;13.90;64.80
21282;DHT22;10800;53.096;18.328;2023-05-07T18:02:51;13.60;66.00
21282;DHT22;10800;53.096;18.328;2023-05-07T18:08:06;13.40;68.00
21282;DHT22;10800;53.096;18.328;2023-05-07T18:13:14;13.20;70.00
21282;DHT22;10800;53.096;18.328;2023-05-07T18:18:20;13.00;71.50
21282;DHT22;10800;53.096;18.328;2023-05-07T18:23:35;12.70;73.20
21282;DHT22;10800;53.096;18.328;2023-05-07T18:28:41;12.50;74.00
21282;DHT22;10800;53.096;18.328;2023-05-07T18:33:51;12.20;76.00
21282;DHT22;10800;53.096;18.328;2023-05-07T18:38:59;11.90;78.20
21282;DHT22;10800;53.096;18.328;2023-05-07T18:44:05;11.70;80.00
21282;DHT22;10800;53.096;18.328;2023-05-07T18:49:11;11.40;83.50
21282;DHT22;10800;53.096;18.328;2023-05-07T18:54:19;11.20;84.20
21282;DHT22;10800;53.096;18.328;2023-05-07T18:59:24;10.90;85.80
21282;DHT22;10800;53.096;18.328;2023-05-07T19:04:30;10.70;86.60
21282;DHT22;10800;53.096;18.328;2023-05-07T19:09:35;10.50;88.50
21282;DHT22;10800;53.096;18.328;2023-05-07T19:14:40;10.40;89.90
21282;DHT22;10800;53.096;18.328;2023-05-07T19:19:47;10.30;90.80
21282;DHT22;10800;53.096;18.328;2023-05-07T19:24:58;10.10;92.00
21282;DHT22;10800;53.096;18.328;2023-05-07T19:29:59;10.00;92.90
21282;DHT22;10800;53.096;18.328;2023-05-07T19:35:05;9.80;93.80
21282;DHT22;10800;53.096;18.328;2023-05-07T19:40:11;9.60;94.40
21282;DHT22;10800;53.096;18.328;2023-05-07T19:45:17;9.50;95.50
21282;DHT22;10800;53.096;18.328;2023-05-07T19:50:22;9.40;98.70
21282;DHT22;10800;53.096;18.328;2023-05-07T19:55:28;9.30;99.00
21282;DHT22;10800;53.096;18.328;2023-05-07T20:00:33;9.10;99.90
21282;DHT22;10800;53.096;18.328;2023-05-07T20:05:38;8.90;99.90
21282;DHT22;10800;53.096;18.328;2023-05-07T20:10:44;8.80;99.90
21282;DHT22;10800;53.096;18.328;2023-05-07T20:15:50;8.70;99.90
21282;DHT22;10800;53.096;18.328;2023-05-07T20:20:55;8.70;99.90
21282;DHT22;10800;53.096;18.328;2023-05-07T20:26:03;8.60;99.90
21282;DHT22;10800;53.096;18.328;2023-05-07T20:31:08;8.60;99.90
21282;DHT22;10800;53.096;18.328;2023-05-07T20:36:14;8.50;99.90
21282;DHT22;10800;53.096;18.328;2023-05-07T20:41:19;8.20;99.90
21282;DHT22;10800;53.096;18.328;2023-05-07T20:46:25;8.10;99.90
21282;DHT22;10800;53.096;18.328;2023-05-07T20:51:31;8.00;99.90
21282;DHT22;10800;53.096;18.328;2023-05-07T20:56:36;8.00;99.90
21282;DHT22;10800;53.096;18.328;2023-05-07T21:01:44;7.90;99.90
21282;DHT22;10800;53.096;18.328;2023-05-07T21:06:55;7.90;99.90
21282;DHT22;10800;53.096;18.328;2023-05-07T21:12:05;7.90;99.90
21282;DHT22;10800;53.096;18.328;2023-05-07T21:17:11;7.80;99.90
21282;DHT22;10800;53.096;18.328;2023-05-07T21:22:19;7.70;99.90
21282;DHT22;10800;53.096;18.328;2023-05-07T21:27:27;7.60;99.90
21282;DHT22;10800;53.096;18.328;2023-05-07T21:32:32;7.60;99.90
21282;DHT22;10800;53.096;18.328;2023-05-07T21:37:40;7.50;99.90
21282;DHT22;10800;53.096;18.328;2023-05-07T21:42:51;7.30;99.90
21282;DHT22;10800;53.096;18.328;2023-05-07T21:47:57;7.30;99.90
21282;DHT22;10800;53.096;18.328;2023-05-07T21:53:06;7.20;99.90
21282;DHT22;10800;53.096;18.328;2023-05-07T21:58:12;7.10;99.90
21282;DHT22;10800;53.096;18.328;2023-05-07T22:03:40;7.00;99.90
21282;DHT22;10800;53.096;18.328;2023-05-07T22:09:07;6.80;99.90
21282;DHT22;10800;53.096;18.328;2023-05-07T22:14:12;6.80;99.90
21282;DHT22;10800;53.096;18.328;2023-05-07T22:19:17;6.70;99.90
21282;DHT22;10800;53.096;18.328;2023-05-07T22:24:22;6.60;99.90
21282;DHT22;10800;53.096;18.328;2023-05-07T22:29:49;6.50;99.90
21282;DHT22;10800;53.096;18.328;2023-05-07T22:34:54;6.30;99.90
21282;DHT22;10800;53.096;18.328;2023-05-07T22:40:04;6.20;99.90
21282;DHT22;10800;53.096;18.328;2023-05-07T22:45:09;6.10;99.90
21282;DHT22;10800;53.096;18.328;2023-05-07T22:50:15;6.00;99.90
21282;DHT22;10800;53.096;18.328;2023-05-07T22:55:34;5.80;99.90
21282;DHT22;10800;53.096;18.328;2023-05-07T23:00:45;5.80;99.90
21282;DHT22;10800;53.096;18.328;2023-05-07T23:06:05;5.70;99.90
21282;DHT22;10800;53.096;18.328;2023-05-07T23:11:46;5.60;99.90
21282;DHT22;10800;53.096;18.328;2023-05-07T23:17:01;5.60;99.90
21282;DHT22;10800;53.096;18.328;2023-05-07T23:22:12;5.50;99.90
21282;DHT22;10800;53.096;18.328;2023-05-07T23:27:19;5.50;99.90
21282;DHT22;10800;53.096;18.328;2023-05-07T23:32:24;5.40;99.90
21282;DHT22;10800;53.096;18.328;2023-05-07T23:37:41;5.40;99.90
21282;DHT22;10800;53.096;18.328;2023-05-07T23:42:59;5.10;99.90
21282;DHT22;10800;53.096;18.328;2023-05-07T23:48:06;5.10;99.90
21282;DHT22;10800;53.096;18.328;2023-05-07T23:59:28;5.00;99.90
